createdAt,value
2022-11-19T00:00:52.086Z,98877.66
2022-11-19T00:02:50.770Z,98870.31
2022-11-19T00:04:48.823Z,98873.94
2022-11-19T00:06:47.071Z,98873.94
2022-11-19T00:08:45.127Z,98872.47
2022-11-19T00:10:43.229Z,98863.72
2022-11-19T00:12:55.803Z,98869.53
2022-11-19T00:14:54.185Z,98870.28
2022-11-19T00:16:52.448Z,98862.22
2022-11-19T00:18:50.871Z,98868.06
2022-11-19T00:20:50.977Z,98860.03
2022-11-19T00:22:49.185Z,98861.47
2022-11-19T00:24:47.269Z,98862.22
2022-11-19T00:26:45.245Z,98863.66
2022-11-19T00:28:43.690Z,98860.72
2022-11-19T00:30:48.006Z,98862.91
2022-11-19T00:32:47.233Z,98861.47
2022-11-19T00:34:45.287Z,98857.06
2022-11-19T00:36:43.573Z,98859.25
2022-11-19T00:38:42.000Z,98862.91
2022-11-19T00:40:40.192Z,98859.94
2022-11-19T00:42:38.397Z,98862.88
2022-11-19T00:44:37.576Z,98857.75
2022-11-19T00:46:35.971Z,98855.56
2022-11-19T00:48:33.993Z,98857.75
2022-11-19T00:50:32.297Z,98859.94
2022-11-19T00:52:30.358Z,98859.19
2022-11-19T00:54:28.617Z,98867.22
2022-11-19T00:56:26.826Z,98850.44
2022-11-19T00:58:24.930Z,98860.63
2022-11-19T01:00:23.466Z,98858.44
2022-11-19T01:02:21.916Z,98861.38
2022-11-19T01:04:19.974Z,98867.22
2022-11-19T01:06:19.568Z,98862.06
2022-11-19T01:08:18.101Z,98854.03
2022-11-19T01:10:16.314Z,98864.25
2022-11-19T01:12:14.576Z,98870.81
2022-11-19T01:14:11.838Z,98863.50
2022-11-19T01:16:10.236Z,98867.16
2022-11-19T01:18:08.526Z,98864.25
2022-11-19T01:20:06.779Z,98864.94
2022-11-19T01:22:04.869Z,98865.69
2022-11-19T01:24:02.942Z,98864.94
2022-11-19T01:26:01.373Z,98874.44
2022-11-19T01:27:59.874Z,98875.88
2022-11-19T01:29:57.904Z,98874.44
2022-11-19T01:31:56.006Z,98875.13
2022-11-19T01:33:54.105Z,98883.19
2022-11-19T01:35:52.351Z,98878.78
2022-11-19T01:37:50.385Z,98879.53
2022-11-19T01:39:48.773Z,98880.97
2022-11-19T01:41:46.831Z,98878.03
2022-11-19T01:43:44.925Z,98874.38
2022-11-19T01:45:43.000Z,98878.03
2022-11-19T01:47:41.246Z,98880.22
2022-11-19T01:49:39.294Z,98885.31
2022-11-19T01:51:37.390Z,98881.66
2022-11-19T01:53:35.519Z,98887.50
2022-11-19T01:55:33.568Z,98891.91
2022-11-19T01:57:31.640Z,98886.75
2022-11-19T01:59:29.909Z,98883.84
2022-11-19T02:01:28.283Z,98890.41
2022-11-19T02:03:26.487Z,98878.00
2022-11-19T02:05:24.985Z,98896.25
2022-11-19T02:07:29.070Z,98888.94
2022-11-19T02:09:27.370Z,98885.28
2022-11-19T02:11:25.384Z,98886.00
2022-11-19T02:13:23.468Z,98886.75
2022-11-19T02:15:21.701Z,98883.81
2022-11-19T02:17:20.029Z,98882.34
2022-11-19T02:19:18.483Z,98887.44
2022-11-19T02:21:16.777Z,98894.75
2022-11-19T02:23:14.840Z,98885.25
2022-11-19T02:25:13.089Z,98892.53
2022-11-19T02:27:11.127Z,98888.91
2022-11-19T02:29:09.281Z,98890.38
2022-11-19T02:31:07.545Z,98888.16
2022-11-19T02:33:06.022Z,98891.81
2022-11-19T02:35:04.226Z,98887.44
2022-11-19T02:37:02.285Z,98883.03
2022-11-19T02:39:00.580Z,98886.69
2022-11-19T02:40:58.894Z,98893.28
2022-11-19T02:42:56.909Z,98893.97
2022-11-19T02:45:00.292Z,98902.72
2022-11-19T02:46:58.393Z,98904.91
2022-11-19T02:48:56.426Z,98903.44
2022-11-19T02:50:54.805Z,98901.25
2022-11-19T02:52:52.879Z,98895.41
2022-11-19T02:54:50.973Z,98903.44
2022-11-19T02:56:49.208Z,98903.44
2022-11-19T02:59:04.955Z,98901.97
2022-11-19T03:01:21.150Z,98907.81
2022-11-19T03:03:36.858Z,98910.00
2022-11-19T03:05:35.065Z,98908.50
2022-11-19T03:07:33.384Z,98908.50
2022-11-19T03:09:31.496Z,98907.78
2022-11-19T03:11:29.959Z,98907.03
2022-11-19T03:13:45.390Z,98904.84
2022-11-19T03:16:01.056Z,98912.13
2022-11-19T03:17:59.099Z,98903.38
2022-11-19T03:19:57.341Z,98901.91
2022-11-19T03:21:55.730Z,98907.75
2022-11-19T03:23:53.976Z,98907.75
2022-11-19T03:25:52.081Z,98913.59
2022-11-19T03:27:50.265Z,98905.56
2022-11-19T03:29:48.581Z,98907.75
2022-11-19T03:31:46.636Z,98910.69
2022-11-19T03:33:44.760Z,98909.19
2022-11-19T03:35:42.811Z,98915.03
2022-11-19T03:37:40.885Z,98910.69
2022-11-19T03:39:38.939Z,98909.94
2022-11-19T03:41:36.949Z,98904.09
2022-11-19T03:43:35.361Z,98907.72
2022-11-19T03:45:33.456Z,98899.69
2022-11-19T03:47:31.710Z,98909.19
2022-11-19T03:49:31.624Z,98908.47
2022-11-19T03:51:29.877Z,98911.38
2022-11-19T03:53:27.908Z,98911.38
2022-11-19T03:55:25.987Z,98906.97
2022-11-19T03:57:24.211Z,98915.72
2022-11-19T03:59:25.542Z,98912.81
2022-11-19T04:01:27.641Z,98912.09
2022-11-19T04:03:25.788Z,98908.44
2022-11-19T04:05:23.819Z,98915.03
2022-11-19T04:07:22.088Z,98917.94
2022-11-19T04:09:20.559Z,98908.44
2022-11-19T04:13:15.723Z,98908.41
2022-11-19T04:15:13.792Z,98912.78
2022-11-19T04:17:12.120Z,98914.97
2022-11-19T04:19:10.187Z,98909.88
2022-11-19T04:21:08.433Z,98917.16
2022-11-19T04:23:06.572Z,98912.06
2022-11-19T04:25:04.830Z,98914.97
2022-11-19T04:27:02.919Z,98916.41
2022-11-19T04:29:01.374Z,98916.41
2022-11-19T04:30:59.419Z,98918.63
2022-11-19T04:32:57.475Z,98914.97
2022-11-19T04:34:55.558Z,98917.88
2022-11-19T04:36:54.095Z,98917.88
2022-11-19T04:38:52.522Z,98923.72
2022-11-19T04:40:50.863Z,98933.91
2022-11-19T04:42:48.859Z,98925.16
2022-11-19T04:44:47.132Z,98922.19
2022-11-19T04:46:45.445Z,98923.69
2022-11-19T04:48:43.648Z,98937.53
2022-11-19T04:50:41.892Z,98935.34
2022-11-19T04:52:41.312Z,98929.50
2022-11-19T04:54:40.606Z,98939.69
2022-11-19T04:56:38.633Z,98933.88
2022-11-19T04:58:36.682Z,98940.44
2022-11-19T05:00:34.763Z,98930.25
2022-11-19T05:02:32.906Z,98921.47
2022-11-19T05:04:30.858Z,98933.16
2022-11-19T05:06:28.917Z,98932.41
2022-11-19T05:08:26.977Z,98939.00
2022-11-19T05:10:25.172Z,98939.00
2022-11-19T05:12:23.228Z,98932.41
2022-11-19T05:14:23.660Z,98930.19
2022-11-19T05:16:24.381Z,98929.47
2022-11-19T05:18:22.836Z,98925.09
2022-11-19T05:20:21.149Z,98931.69
2022-11-19T05:22:19.276Z,98930.94
2022-11-19T05:24:17.306Z,98938.22
2022-11-19T05:26:15.589Z,98938.22
2022-11-19T05:28:14.052Z,98930.19
2022-11-19T05:30:12.244Z,98938.94
2022-11-19T05:32:10.517Z,98936.03
2022-11-19T05:34:08.971Z,98937.50
2022-11-19T05:36:07.195Z,98930.94
2022-11-19T05:38:05.571Z,98934.59
2022-11-19T05:40:03.915Z,98939.00
2022-11-19T05:42:02.329Z,98939.69
2022-11-19T05:44:00.379Z,98944.09
2022-11-19T05:45:58.609Z,98941.19
2022-11-19T05:47:57.085Z,98941.94
2022-11-19T05:49:55.178Z,98938.28
2022-11-19T05:51:53.561Z,98936.84
2022-11-19T05:53:51.663Z,98936.09
2022-11-19T05:55:49.740Z,98939.75
2022-11-19T05:57:48.017Z,98943.41
2022-11-19T05:59:46.155Z,98936.84
2022-11-19T06:01:44.613Z,98949.25
2022-11-19T06:03:42.758Z,98950.69
2022-11-19T06:05:40.975Z,98944.88
2022-11-19T06:07:39.330Z,98947.81
2022-11-19T06:09:37.700Z,98944.16
2022-11-19T06:11:51.550Z,98949.97
2022-11-19T06:13:49.649Z,98959.47
2022-11-19T06:15:47.648Z,98960.19
2022-11-19T06:17:45.788Z,98955.09
2022-11-19T06:19:43.844Z,98955.09
2022-11-19T06:21:42.091Z,98956.53
2022-11-19T06:23:40.372Z,98971.13
2022-11-19T06:25:38.454Z,98971.84
2022-11-19T06:27:36.774Z,98974.78
2022-11-19T06:29:34.974Z,98970.38
2022-11-19T06:31:33.007Z,98968.19
2022-11-19T06:33:31.454Z,98979.13
2022-11-19T06:35:29.703Z,98979.13
2022-11-19T06:37:27.903Z,98985.72
2022-11-19T06:39:25.972Z,98978.38
2022-11-19T06:41:24.422Z,98989.31
2022-11-19T06:43:22.393Z,98990.81
2022-11-19T06:45:20.504Z,98989.31
2022-11-19T06:47:18.781Z,98993.69
2022-11-19T06:49:20.156Z,98997.38
2022-11-19T06:51:18.563Z,99002.47
2022-11-19T06:53:16.788Z,99010.47
2022-11-19T06:55:15.107Z,99009.72
2022-11-19T06:57:13.425Z,99013.41
2022-11-19T06:59:11.729Z,99009.00
2022-11-19T07:01:10.015Z,99020.66
2022-11-19T07:03:08.103Z,99014.81
2022-11-19T07:05:06.197Z,99023.59
2022-11-19T07:07:04.466Z,99029.41
2022-11-19T07:09:02.599Z,99021.41
2022-11-19T07:11:00.704Z,99020.66
2022-11-19T07:12:58.711Z,99026.50
2022-11-19T07:15:02.681Z,99027.97
2022-11-19T07:17:02.236Z,99034.56
2022-11-19T07:19:00.265Z,99033.09
2022-11-19T07:20:58.313Z,99038.25
2022-11-19T07:22:59.336Z,99038.97
2022-11-19T07:24:57.883Z,99043.41
2022-11-19T07:26:55.885Z,99041.25
2022-11-19T07:28:54.297Z,99043.47
2022-11-19T07:30:52.341Z,99045.69
2022-11-19T07:32:50.767Z,99051.59
2022-11-19T07:34:48.774Z,99050.88
2022-11-19T07:36:46.870Z,99055.34
2022-11-19T07:38:44.914Z,99056.84
2022-11-19T07:40:42.936Z,99055.47
2022-11-19T07:42:53.264Z,99060.63
2022-11-19T07:44:54.789Z,99071.63
2022-11-19T07:46:53.229Z,99070.22
2022-11-19T07:48:51.603Z,99072.50
2022-11-19T07:50:55.142Z,99065.97
2022-11-19T07:52:54.619Z,99072.63
2022-11-19T07:54:52.682Z,99077.78
2022-11-19T07:56:50.739Z,99075.66
2022-11-19T07:58:49.076Z,99070.56
2022-11-19T08:00:47.225Z,99075.00
2022-11-19T08:02:45.938Z,99080.91
2022-11-19T08:04:44.013Z,99073.63
2022-11-19T08:06:42.439Z,99079.53
2022-11-19T08:08:40.481Z,99087.59
2022-11-19T08:10:38.569Z,99094.94
2022-11-19T08:12:37.169Z,99090.59
2022-11-19T08:14:35.238Z,99090.59
2022-11-19T08:16:50.836Z,99087.03
2022-11-19T08:18:48.949Z,99087.78
2022-11-19T08:20:48.327Z,99083.41
2022-11-19T08:22:46.553Z,99083.44
2022-11-19T08:24:44.639Z,99079.06
2022-11-19T08:26:42.667Z,99084.94
2022-11-19T08:28:41.096Z,99071.78
2022-11-19T08:30:41.737Z,99076.19
2022-11-19T08:32:39.963Z,99076.22
2022-11-19T08:34:38.049Z,99066.72
2022-11-19T08:36:36.074Z,99068.19
2022-11-19T08:38:38.465Z,99068.94
2022-11-19T08:40:36.987Z,99082.09
2022-11-19T08:42:52.386Z,99078.47
2022-11-19T08:44:50.435Z,99068.97
2022-11-19T08:46:48.517Z,99076.25
2022-11-19T08:48:47.132Z,99082.13
2022-11-19T08:50:45.162Z,99075.56
2022-11-19T08:52:43.658Z,99075.56
2022-11-19T08:54:41.877Z,99085.78
2022-11-19T08:56:40.128Z,99082.84
2022-11-19T08:58:38.439Z,99085.78
2022-11-19T09:00:36.488Z,99082.84
2022-11-19T09:02:34.770Z,99085.06
2022-11-19T09:04:32.910Z,99086.56
2022-11-19T09:06:31.058Z,99097.50
2022-11-19T09:08:29.201Z,99094.59
2022-11-19T09:10:27.463Z,99094.59
2022-11-19T09:12:25.599Z,99094.59
2022-11-19T09:14:23.619Z,99104.09
2022-11-19T09:16:21.886Z,99097.50
2022-11-19T09:18:19.953Z,99101.19
2022-11-19T09:20:18.406Z,99101.19
2022-11-19T09:22:16.835Z,99106.28
2022-11-19T09:24:15.274Z,99104.84
2022-11-19T09:26:13.420Z,99104.84
2022-11-19T09:28:11.766Z,99104.84
2022-11-19T09:30:09.982Z,99104.84
2022-11-19T09:32:08.036Z,99112.88
2022-11-19T09:34:06.080Z,99111.44
2022-11-19T09:36:04.474Z,99108.53
2022-11-19T09:38:02.701Z,99112.19
2022-11-19T09:40:00.851Z,99113.63
2022-11-19T09:41:59.164Z,99121.69
2022-11-19T09:43:57.242Z,99119.47
2022-11-19T09:45:55.597Z,99123.16
2022-11-19T09:47:53.719Z,99123.19
2022-11-19T09:49:52.010Z,99128.31
2022-11-19T09:51:50.010Z,99128.31
2022-11-19T09:53:48.249Z,99128.31
2022-11-19T09:55:46.320Z,99132.72
2022-11-19T09:57:44.338Z,99126.88
2022-11-19T09:59:42.553Z,99132.00
2022-11-19T10:01:40.776Z,99132.75
2022-11-19T10:03:38.825Z,99132.75
2022-11-19T10:05:37.225Z,99126.91
2022-11-19T10:07:35.329Z,99130.53
2022-11-19T10:09:33.488Z,99130.53
2022-11-19T10:11:31.895Z,99134.22
2022-11-19T10:13:30.113Z,99129.84
2022-11-19T10:15:30.855Z,99136.41
2022-11-19T10:17:31.300Z,99125.44
2022-11-19T10:19:29.617Z,99133.47
2022-11-19T10:21:27.736Z,99128.34
2022-11-19T10:23:26.042Z,99129.09
2022-11-19T10:25:24.228Z,99129.84
2022-11-19T10:27:22.572Z,99125.47
2022-11-19T10:29:20.915Z,99122.56
2022-11-19T10:31:19.586Z,99127.66
2022-11-19T10:33:18.066Z,99124.72
2022-11-19T10:35:16.101Z,99126.22
2022-11-19T10:37:14.180Z,99129.84
2022-11-19T10:39:12.221Z,99129.84
2022-11-19T10:41:10.228Z,99120.31
2022-11-19T10:43:08.300Z,99118.88
2022-11-19T10:45:06.391Z,99118.16
2022-11-19T10:47:04.737Z,99123.25
2022-11-19T10:49:03.266Z,99120.31
2022-11-19T10:51:01.716Z,99118.88
2022-11-19T10:52:59.775Z,99112.28
2022-11-19T10:54:57.898Z,99113.78
2022-11-19T10:56:55.939Z,99111.56
2022-11-19T10:58:54.272Z,99112.28
2022-11-19T11:00:52.308Z,99112.28
2022-11-19T11:02:50.445Z,99107.88
2022-11-19T11:04:48.555Z,99100.59
2022-11-19T11:06:46.850Z,99103.53
2022-11-19T11:08:45.146Z,99103.53
2022-11-19T11:10:44.252Z,99101.34
2022-11-19T11:13:02.330Z,99096.97
2022-11-19T11:15:00.569Z,99105.75
2022-11-19T11:16:59.403Z,99104.28
2022-11-19T11:18:57.493Z,99101.34
2022-11-19T11:20:56.490Z,99110.13
2022-11-19T11:22:54.728Z,99099.16
2022-11-19T11:24:52.822Z,99112.34
2022-11-19T11:26:50.843Z,99100.66
2022-11-19T11:28:49.119Z,99105.06
2022-11-19T11:30:47.778Z,99100.66
2022-11-19T11:32:47.416Z,99100.66
2022-11-19T11:34:45.613Z,99105.06
2022-11-19T11:36:43.913Z,99110.91
2022-11-19T11:38:42.421Z,99099.22
2022-11-19T11:40:40.814Z,99109.47
2022-11-19T11:42:39.012Z,99109.47
2022-11-19T11:44:37.316Z,99105.81
2022-11-19T11:46:36.448Z,99109.47
2022-11-19T11:48:34.681Z,99103.63
2022-11-19T11:50:32.973Z,99113.84
2022-11-19T11:52:30.992Z,99111.66
2022-11-19T11:54:28.980Z,99109.47
2022-11-19T11:56:28.144Z,99107.28
2022-11-19T11:58:26.289Z,99105.81
2022-11-19T12:00:24.320Z,99100.69
2022-11-19T12:02:22.582Z,99102.13
2022-11-19T12:04:20.702Z,99110.16
2022-11-19T12:06:18.767Z,99102.13
2022-11-19T12:08:16.831Z,99101.41
2022-11-19T12:10:14.880Z,99099.22
2022-11-19T12:12:13.019Z,99102.88
2022-11-19T12:14:11.486Z,99103.59
2022-11-19T12:16:09.657Z,99097.72
2022-11-19T12:18:07.642Z,99100.66
2022-11-19T12:20:05.666Z,99101.41
2022-11-19T12:22:03.846Z,99097.72
2022-11-19T12:24:01.781Z,99087.50
2022-11-19T12:26:00.125Z,99088.25
2022-11-19T12:27:58.240Z,99091.16
2022-11-19T12:29:56.300Z,99094.09
2022-11-19T12:31:54.381Z,99091.16
2022-11-19T12:33:52.474Z,99087.50
2022-11-19T12:35:50.985Z,99085.31
2022-11-19T12:37:49.035Z,99083.09
2022-11-19T12:39:47.527Z,99090.44
2022-11-19T12:41:45.745Z,99089.69
2022-11-19T12:43:43.793Z,99083.09
2022-11-19T12:45:42.113Z,99091.13
2022-11-19T12:47:44.677Z,99097.00
2022-11-19T12:49:43.423Z,99094.06
2022-11-19T12:51:41.425Z,99087.47
2022-11-19T12:53:39.524Z,99094.06
2022-11-19T12:55:37.544Z,99090.44
2022-11-19T12:57:35.850Z,99088.94
2022-11-19T12:59:33.881Z,99090.44
2022-11-19T13:01:32.077Z,99094.09
2022-11-19T13:03:30.199Z,99094.09
2022-11-19T13:05:28.519Z,99088.94
2022-11-19T13:07:26.654Z,99088.25
2022-11-19T13:09:25.016Z,99091.91
2022-11-19T14:04:49.929Z,99095.59
2022-11-19T14:06:47.999Z,99088.56
2022-11-19T14:08:46.337Z,99093.34
2022-11-19T14:10:44.608Z,99095.94
2022-11-19T14:12:42.930Z,99086.72
2022-11-19T14:14:58.753Z,99081.88
2022-11-19T14:17:14.649Z,99081.31
2022-11-19T14:19:30.243Z,99086.59
2022-11-19T14:21:46.079Z,99085.94
2022-11-19T14:24:01.469Z,99090.38
2022-11-19T14:26:17.532Z,99086.03
2022-11-19T14:28:15.601Z,99086.03
2022-11-19T14:30:14.070Z,99088.25
2022-11-19T14:32:12.123Z,99083.84
2022-11-19T14:34:10.379Z,99086.78
2022-11-19T14:36:08.699Z,99084.56
2022-11-19T14:38:06.911Z,99091.19
2022-11-19T14:40:05.008Z,99093.41
2022-11-19T14:42:03.086Z,99091.19
2022-11-19T14:44:09.003Z,99097.03
2022-11-19T14:46:09.158Z,99093.38
2022-11-19T14:48:07.523Z,99099.97
2022-11-19T14:50:05.760Z,99095.53
2022-11-19T14:52:04.307Z,99093.34
2022-11-19T14:54:03.527Z,99086.72
2022-11-19T14:56:01.856Z,99089.63
2022-11-19T14:58:00.014Z,99089.63
2022-11-19T14:59:58.011Z,99094.72
2022-11-19T15:01:56.028Z,99093.25
2022-11-19T15:03:54.102Z,99088.13
2022-11-19T15:05:53.257Z,99099.09
2022-11-19T15:07:55.947Z,99100.53
2022-11-19T15:09:54.585Z,99101.25
2022-11-19T15:11:52.610Z,99103.47
2022-11-19T15:13:50.669Z,99104.88
2022-11-19T15:15:48.883Z,99109.97
2022-11-19T15:17:47.266Z,99105.56
2022-11-19T15:19:45.600Z,99109.94
2022-11-19T15:21:43.904Z,99111.38
2022-11-19T15:23:42.079Z,99109.16
2022-11-19T15:25:40.364Z,99106.94
2022-11-19T15:27:38.678Z,99109.88
2022-11-19T15:29:36.973Z,99106.94
2022-11-19T15:31:35.407Z,99114.25
2022-11-19T15:33:33.429Z,99114.97
2022-11-19T15:35:31.491Z,99114.22
2022-11-19T15:37:29.572Z,99117.16
2022-11-19T15:39:27.562Z,99117.84
2022-11-19T15:41:25.724Z,99112.69
2022-11-19T15:43:23.976Z,99116.38
2022-11-19T15:45:22.374Z,99130.25
2022-11-19T15:47:20.813Z,99117.78
2022-11-19T15:49:19.443Z,99121.44
2022-11-19T15:51:17.701Z,99123.63
2022-11-19T15:53:16.024Z,99128.00
2022-11-19T15:55:14.292Z,99128.75
2022-11-19T15:57:12.352Z,99122.09
2022-11-19T15:59:10.692Z,99125.78
2022-11-19T16:01:08.840Z,99125.03
2022-11-19T16:03:07.107Z,99127.22
2022-11-19T16:05:05.605Z,99125.75
2022-11-19T16:07:03.668Z,99122.81
2022-11-19T16:09:03.342Z,99133.03
2022-11-19T16:11:20.692Z,99127.91
2022-11-19T16:13:36.690Z,99123.50
2022-11-19T16:16:04.111Z,99133.00
2022-11-19T16:18:02.491Z,99133.72
2022-11-19T16:20:00.718Z,99141.03
2022-11-19T16:21:58.973Z,99135.91
2022-11-19T16:24:14.538Z,99137.34
2022-11-19T16:26:12.780Z,99138.03
2022-11-19T16:28:11.238Z,99142.41
2022-11-19T16:30:09.555Z,99142.41
2022-11-19T16:32:08.195Z,99141.66
2022-11-19T16:34:06.731Z,99141.63
2022-11-19T16:36:05.036Z,99151.84
2022-11-19T16:38:03.121Z,99144.50
2022-11-19T16:40:01.138Z,99157.66
2022-11-19T16:42:16.911Z,99143.00
2022-11-19T16:44:15.013Z,99149.59
2022-11-19T16:46:13.032Z,99145.91
2022-11-19T16:48:11.508Z,99154.69
2022-11-19T16:50:09.796Z,99150.97
2022-11-19T16:52:08.390Z,99150.22
2022-11-19T16:54:06.614Z,99156.78
2022-11-19T16:56:04.716Z,99154.56
2022-11-19T16:58:02.973Z,99154.56
2022-11-19T17:00:01.230Z,99155.25
2022-11-19T17:01:59.745Z,99159.66
2022-11-19T17:03:58.153Z,99153.78
2022-11-19T17:05:56.122Z,99155.94
2022-11-19T17:07:54.196Z,99162.50
2022-11-19T17:09:52.385Z,99161.00
2022-11-19T17:12:08.017Z,99164.63
2022-11-19T17:14:06.321Z,99165.34
2022-11-19T17:16:04.367Z,99173.38
2022-11-19T17:18:02.616Z,99182.84
2022-11-19T17:20:00.727Z,99182.84
2022-11-19T17:21:58.747Z,99187.94
2022-11-19T17:23:57.120Z,99183.53
2022-11-19T17:25:55.154Z,99187.91
2022-11-19T17:27:53.565Z,99195.19
2022-11-19T17:29:51.650Z,99188.56
2022-11-19T17:31:49.899Z,99192.94
2022-11-19T17:33:47.992Z,99192.16
2022-11-19T17:35:46.052Z,99192.84
2022-11-19T17:37:44.671Z,99195.78
2022-11-19T17:39:42.697Z,99205.25
2022-11-19T17:41:58.677Z,99208.16
2022-11-19T17:44:14.344Z,99205.94
2022-11-19T17:46:12.484Z,99205.91
2022-11-19T17:48:10.544Z,99206.63
2022-11-19T17:50:08.680Z,99208.06
2022-11-19T17:52:06.781Z,99203.66
2022-11-19T17:54:05.264Z,99209.44
2022-11-19T17:56:03.716Z,99216.75
2022-11-19T17:58:02.014Z,99224.81
2022-11-19T18:00:00.075Z,99222.56
2022-11-19T18:01:58.622Z,99218.91
2022-11-19T18:03:56.760Z,99221.06
2022-11-19T18:05:55.109Z,99231.28
2022-11-19T18:07:53.350Z,99226.13
2022-11-19T18:09:51.813Z,99229.03
2022-11-19T18:11:50.064Z,99218.81
2022-11-19T18:13:48.319Z,99225.34
2022-11-19T18:15:46.673Z,99227.53
2022-11-19T18:17:45.030Z,99224.59
2022-11-19T18:19:43.172Z,99221.63
2022-11-19T18:21:41.276Z,99221.63
2022-11-19T18:23:39.646Z,99226.00
2022-11-19T18:25:37.657Z,99223.75
2022-11-19T18:27:36.124Z,99222.31
2022-11-19T18:29:34.473Z,99220.81
2022-11-19T18:31:32.719Z,99223.00
2022-11-19T18:33:30.823Z,99223.00
2022-11-19T18:35:30.680Z,99225.16
2022-11-19T18:37:29.811Z,99226.59
2022-11-19T18:39:27.983Z,99230.97
2022-11-19T18:41:26.443Z,99225.84
2022-11-19T18:43:42.353Z,99230.22
2022-11-19T18:45:40.624Z,99234.56
2022-11-19T18:47:38.950Z,99232.38
2022-11-19T18:49:37.079Z,99239.69
2022-11-19T18:51:35.306Z,99236.72
2022-11-19T18:53:33.592Z,99233.06
2022-11-19T18:55:32.023Z,99227.22
2022-11-19T18:57:30.025Z,99229.41
2022-11-19T18:59:28.796Z,99240.41
2022-11-19T19:01:27.178Z,99230.16
2022-11-19T19:03:25.478Z,99236.00
2022-11-19T19:05:23.727Z,99238.91
2022-11-19T19:07:21.991Z,99239.66
2022-11-19T19:09:20.757Z,99240.41
2022-11-19T19:11:36.184Z,99242.59
2022-11-19T19:13:34.518Z,99241.88
2022-11-19T19:15:32.729Z,99246.25
2022-11-19T19:17:30.955Z,99246.25
2022-11-19T19:19:28.970Z,99247.00
2022-11-19T19:21:27.031Z,99250.66
2022-11-19T19:23:25.542Z,99249.19
2022-11-19T19:25:23.728Z,99256.53
2022-11-19T19:27:22.054Z,99256.53
2022-11-19T19:29:20.583Z,99252.84
2022-11-19T19:31:19.123Z,99260.19
2022-11-19T19:33:17.216Z,99262.38
2022-11-19T19:35:15.514Z,99255.03
2022-11-19T19:37:13.632Z,99261.63
2022-11-19T19:39:11.973Z,99267.44
2022-11-19T19:41:10.099Z,99263.06
2022-11-19T19:43:08.164Z,99258.69
2022-11-19T19:45:06.509Z,99262.28
2022-11-19T19:47:04.818Z,99265.22
2022-11-19T19:49:02.843Z,99263.72
2022-11-19T19:51:01.190Z,99271.78
2022-11-19T19:52:59.489Z,99266.66
2022-11-19T19:54:57.732Z,99269.56
2022-11-19T19:56:55.798Z,99266.63
2022-11-19T19:58:54.077Z,99271.72
2022-11-19T20:00:52.351Z,99278.28
2022-11-19T20:02:50.485Z,99276.09
2022-11-19T20:04:48.617Z,99266.56
2022-11-19T20:06:47.008Z,99270.94
2022-11-19T20:08:45.405Z,99281.88
2022-11-19T20:10:43.451Z,99270.91
2022-11-19T20:12:58.883Z,99276.00
2022-11-19T20:14:57.114Z,99275.28
2022-11-19T20:16:55.431Z,99274.53
2022-11-19T20:18:53.663Z,99274.50
2022-11-19T20:20:51.911Z,99279.59
2022-11-19T20:22:49.993Z,99284.03
2022-11-19T20:24:48.478Z,99286.94
2022-11-19T20:26:46.788Z,99283.28
2022-11-19T20:28:44.848Z,99278.19
2022-11-19T20:30:43.174Z,99284.03
2022-11-19T20:32:41.271Z,99285.47
2022-11-19T20:34:39.276Z,99278.19
2022-11-19T20:36:37.557Z,99291.31
2022-11-19T20:38:35.701Z,99293.53
2022-11-19T20:40:33.718Z,99289.88
2022-11-19T20:42:49.261Z,99287.69
2022-11-19T20:44:47.313Z,99276.00
2022-11-19T20:46:45.829Z,99287.00
2022-11-19T20:48:43.844Z,99283.34
2022-11-19T20:50:42.177Z,99283.34
2022-11-19T20:52:40.418Z,99282.59
2022-11-19T20:54:38.554Z,99281.88
2022-11-19T20:56:36.802Z,99286.25
2022-11-19T20:58:34.870Z,99289.94
2022-11-19T21:00:34.149Z,99289.94
2022-11-19T21:02:32.470Z,99293.56
2022-11-19T21:04:36.236Z,99289.19
2022-11-19T21:06:34.585Z,99297.94
2022-11-19T21:08:32.681Z,99294.28
2022-11-19T21:10:30.755Z,99297.22
2022-11-19T21:12:29.177Z,99300.81
2022-11-19T21:14:27.495Z,99300.81
2022-11-19T21:16:25.572Z,99296.44
2022-11-19T21:18:24.489Z,99302.28
2022-11-19T21:20:22.968Z,99306.66
2022-11-19T21:22:20.928Z,99307.41
2022-11-19T21:24:18.982Z,99302.25
2022-11-19T21:26:17.430Z,99302.22
2022-11-19T21:28:15.909Z,99301.47
2022-11-19T21:30:14.251Z,99306.59
2022-11-19T21:32:12.874Z,99309.50
2022-11-19T21:34:10.888Z,99300.66
2022-11-19T21:36:09.097Z,99311.63
2022-11-19T21:38:11.831Z,99312.34
2022-11-19T21:40:10.360Z,99317.47
2022-11-19T21:42:08.450Z,99314.56
2022-11-19T21:44:06.776Z,99314.56
2022-11-19T21:46:04.792Z,99314.56
2022-11-19T21:48:02.881Z,99318.91
2022-11-19T21:50:01.174Z,99316.00
2022-11-19T21:51:59.483Z,99321.84
2022-11-19T21:53:57.758Z,99318.91
2022-11-19T21:55:55.807Z,99319.66
2022-11-19T21:57:54.271Z,99318.19
2022-11-19T21:59:52.595Z,99312.34
2022-11-19T22:01:54.704Z,99316.03
2022-11-19T22:03:53.252Z,99313.13
2022-11-19T22:05:51.458Z,99306.59
2022-11-19T22:07:50.174Z,99311.69
2022-11-19T22:09:48.253Z,99315.38
2022-11-19T22:11:46.528Z,99308.84
2022-11-19T22:13:44.596Z,99307.41
2022-11-19T22:15:42.676Z,99317.59
2022-11-19T22:17:40.711Z,99310.31
2022-11-19T22:19:39.011Z,99308.84
2022-11-19T22:21:37.290Z,99300.81
2022-11-19T22:23:35.352Z,99305.97
2022-11-19T22:25:33.533Z,99298.66
2022-11-19T22:27:31.626Z,99304.50
2022-11-19T22:29:29.704Z,99286.97
2022-11-19T22:31:27.729Z,99294.25
2022-11-19T22:33:25.866Z,99299.38
2022-11-19T22:35:23.897Z,99298.66
2022-11-19T22:37:21.966Z,99303.75
2022-11-19T22:39:20.313Z,99299.38
2022-11-19T22:41:18.618Z,99287.69
2022-11-19T22:43:20.303Z,99286.94
2022-11-19T22:45:21.129Z,99283.97
2022-11-19T22:47:19.397Z,99284.72
2022-11-19T22:49:17.581Z,99290.56
2022-11-19T22:51:15.716Z,99286.88
2022-11-19T22:53:16.168Z,99289.78
2022-11-19T22:55:14.239Z,99291.22
2022-11-19T22:57:12.268Z,99286.81
2022-11-19T22:59:10.533Z,99290.44
2022-11-19T23:01:08.694Z,99290.50
2022-11-19T23:03:07.010Z,99288.25
2022-11-19T23:05:05.258Z,99283.84
2022-11-19T23:07:03.651Z,99289.69
2022-11-19T23:09:01.803Z,99288.94
2022-11-19T23:11:00.095Z,99291.88
2022-11-19T23:13:15.758Z,99292.56
2022-11-19T23:15:14.043Z,99288.94
2022-11-19T23:17:12.316Z,99287.44
2022-11-19T23:19:10.382Z,99285.97
2022-11-19T23:21:08.628Z,99291.06
2022-11-19T23:23:06.748Z,99295.41
2022-11-19T23:25:06.295Z,99287.41
2022-11-19T23:27:04.633Z,99285.94
2022-11-19T23:29:02.682Z,99287.38
2022-11-19T23:31:00.804Z,99289.56
2022-11-19T23:32:59.073Z,99299.00
2022-11-19T23:34:57.233Z,99293.91
2022-11-19T23:36:55.246Z,99294.63
2022-11-19T23:38:53.436Z,99296.81
2022-11-19T23:40:51.676Z,99295.31
2022-11-19T23:42:52.176Z,99293.84
2022-11-19T23:44:50.389Z,99290.88
2022-11-19T23:46:48.742Z,99287.97
2022-11-19T23:48:47.258Z,99289.41
2022-11-19T23:50:45.523Z,99293.75
2022-11-19T23:52:43.796Z,99293.03
2022-11-19T23:54:42.220Z,99293.75
2022-11-19T23:56:40.752Z,99290.06
2022-11-19T23:58:38.846Z,99287.16
